Arcadia, Texas
Current Conditions -  °F | °C
As of 11:53 AM on Sunday 21 Dec 2014 (Local Time) from KLVJ Reporting Station
Broken Clouds Broken Clouds  
Wind Chill: 58°   Ceiling: 10000
Heat Index: 58°   Visibility: 10mi
Dew Point: 48°   Wind: 7mph
Humidity: 70%   Direction: 100°E
Pressure: 30.09"   Gusts: NA
Location:  29.3723°N, 95.1328°W
Report Text: KLVJ 211753Z AUTO 10006KT 10SM FEW090 BKN100 14/09 A3009 RMK AO2 SLP187 T01440089 10150 20100 58018
Loading
Personal Weather Stations






























Interactive Weather Map New forecast layout! Learn more

10-Day Weather Forecast

Advertisements
Track Severe Weather on mobile